Time;durP1;ratioP1;P1;durP2;ratioP2;P2;SDS_P1;SDS_P2;PMS_P1;PMS_P2;Temp;Humidity;BMP_temperature;BMP_pressure;BME280_temperature;BME280_humidity;BME280_pressure;Samples;Min_cycle;Max_cycle;Signal;HPM_P1;HPM_P2
2023/10/17 00:01:04;;;;;;;14.33;7.17;;;4.90;99.90;;;;;;4820385;29;20207;-80
2023/10/17 00:03:44;;;;;;;16.23;7.00;;;5.20;99.90;;;;;;4820446;29;20201;-79
2023/10/17 00:06:22;;;;;;;13.27;7.23;;;5.00;99.90;;;;;;4854694;29;20229;-80
2023/10/17 00:09:05;;;;;;;16.33;7.47;;;5.10;99.90;;;;;;4874859;29;20200;-80
2023/10/17 00:11:51;;;;;;;14.93;6.70;;;5.00;99.90;;;;;;4859453;29;20205;-80
2023/10/17 00:14:23;;;;;;;16.50;7.27;;;5.00;99.90;;;;;;4875410;29;20197;-79
2023/10/17 00:16:57;;;;;;;14.63;7.13;;;4.90;99.90;;;;;;4874786;29;20245;-79
2023/10/17 00:19:31;;;;;;;14.57;7.20;;;4.90;99.90;;;;;;4874718;29;20204;-79
2023/10/17 00:22:17;;;;;;;14.43;7.07;;;4.80;99.90;;;;;;4875852;29;20226;-79
2023/10/17 00:24:47;;;;;;;15.60;7.33;;;4.80;99.90;;;;;;4863467;29;20209;-80
2023/10/17 00:27:16;;;;;;;15.67;7.30;;;5.20;99.90;;;;;;4878649;29;20199;-80
2023/10/17 00:29:52;;;;;;;16.10;7.57;;;4.90;99.90;;;;;;4877206;29;20294;-80
2023/10/17 00:32:40;;;;;;;15.53;7.60;;;4.80;99.90;;;;;;4878256;29;20272;-80
2023/10/17 00:35:15;;;;;;;17.03;7.33;;;4.80;99.90;;;;;;4863307;29;20185;-80
2023/10/17 00:37:57;;;;;;;14.13;7.07;;;4.70;99.90;;;;;;4878214;29;20229;-79
2023/10/17 00:40:34;;;;;;;15.63;7.73;;;5.00;99.90;;;;;;4878435;29;20668;-79
2023/10/17 00:43:16;;;;;;;11.40;6.80;;;4.80;99.90;;;;;;4862600;29;20202;-80
2023/10/17 00:45:47;;;;;;;16.10;7.30;;;4.80;99.90;;;;;;4877908;29;20211;-79
2023/10/17 00:48:27;;;;;;;15.73;7.07;;;4.80;99.90;;;;;;4878431;29;20181;-80
2023/10/17 00:51:07;;;;;;;13.33;6.83;;;5.10;99.90;;;;;;4878239;29;20229;-81
2023/10/17 00:53:42;;;;;;;16.27;7.93;;;4.80;99.90;;;;;;4877577;29;20276;-79
2023/10/17 00:56:13;;;;;;;13.17;6.60;;;4.80;99.90;;;;;;4878327;29;20700;-79
2023/10/17 00:58:42;;;;;;;17.60;7.87;;;4.80;99.90;;;;;;4878432;29;20201;-79
2023/10/17 01:01:16;;;;;;;14.80;7.87;;;4.70;99.90;;;;;;4877825;29;20210;-79
2023/10/17 01:04:00;;;;;;;16.03;7.43;;;4.60;99.90;;;;;;4877594;29;20726;-81
2023/10/17 01:09:07;;;;;;;15.53;7.53;;;4.70;99.90;;;;;;4877419;29;20207;-81
2023/10/17 01:11:44;;;;;;;16.87;7.80;;;4.70;99.90;;;;;;4847424;29;20219;-80
2023/10/17 01:14:23;;;;;;;18.00;7.97;;;4.70;99.90;;;;;;4861567;29;20754;-79
2023/10/17 01:16:55;;;;;;;11.50;6.80;;;4.70;99.90;;;;;;4877017;29;20224;-81
2023/10/17 01:19:33;;;;;;;19.37;7.73;;;4.70;99.90;;;;;;4877186;29;20729;-80
2023/10/17 01:22:04;;;;;;;16.37;7.53;;;4.60;99.90;;;;;;4861609;29;20298;-79
2023/10/17 01:24:34;;;;;;;16.40;8.00;;;4.80;99.90;;;;;;4877490;29;20197;-80
2023/10/17 01:27:12;;;;;;;15.30;7.37;;;4.80;99.90;;;;;;4861574;29;20218;-80
2023/10/17 01:29:44;;;;;;;20.93;7.93;;;4.80;99.90;;;;;;4877305;29;20227;-79
2023/10/17 01:32:14;;;;;;;18.20;7.70;;;4.80;99.90;;;;;;4876020;29;20214;-79
2023/10/17 01:34:47;;;;;;;21.63;8.47;;;4.60;99.90;;;;;;4861543;29;20250;-80
2023/10/17 01:37:15;;;;;;;15.10;7.93;;;4.80;99.90;;;;;;4879205;29;20240;-79
2023/10/17 01:39:46;;;;;;;14.27;7.60;;;4.60;99.90;;;;;;4935402;29;20271;-79
2023/10/17 01:42:19;;;;;;;14.70;7.77;;;4.80;99.90;;;;;;4936436;29;20375;-79
2023/10/17 01:44:58;;;;;;;13.83;7.20;;;4.60;99.90;;;;;;4936479;29;20351;-80
2023/10/17 01:47:29;;;;;;;14.63;7.23;;;4.50;99.90;;;;;;4919952;29;20232;-80
2023/10/17 01:49:57;;;;;;;15.03;7.67;;;4.50;99.90;;;;;;4936600;29;20308;-79
2023/10/17 01:52:30;;;;;;;18.93;8.17;;;4.50;99.90;;;;;;4936380;29;20292;-81
2023/10/17 01:55:10;;;;;;;13.80;7.17;;;4.40;99.90;;;;;;4934383;29;20214;-80
2023/10/17 01:57:47;;;;;;;15.77;7.60;;;4.40;99.90;;;;;;4934768;29;20225;-81
2023/10/17 02:00:29;;;;;;;16.90;8.00;;;4.60;99.90;;;;;;4935315;29;20205;-80
2023/10/17 02:03:12;;;;;;;18.83;8.10;;;4.30;99.90;;;;;;4933982;29;20213;-80
2023/10/17 02:05:47;;;;;;;15.63;8.23;;;4.30;99.90;;;;;;4915927;29;20579;-80
2023/10/17 02:08:22;;;;;;;16.93;8.10;;;4.50;99.90;;;;;;4916966;29;20197;-79
2023/10/17 02:10:50;;;;;;;15.43;8.40;;;4.30;99.90;;;;;;4916147;29;20360;-80
2023/10/17 02:13:17;;;;;;;14.50;8.27;;;4.30;99.90;;;;;;4916605;29;20260;-80
2023/10/17 02:15:50;;;;;;;16.10;8.60;;;4.50;99.90;;;;;;4915505;29;20848;-79
2023/10/17 02:18:20;;;;;;;15.00;8.40;;;4.40;99.90;;;;;;4927757;29;20237;-80
2023/10/17 02:20:53;;;;;;;17.80;8.07;;;4.40;99.90;;;;;;4935668;29;20199;-79
2023/10/17 02:23:28;;;;;;;17.23;8.07;;;4.20;99.90;;;;;;4918180;29;20658;-79
2023/10/17 02:26:00;;;;;;;19.83;8.80;;;4.30;99.90;;;;;;4918034;29;20199;-80
2023/10/17 02:28:46;;;;;;;19.17;8.10;;;4.30;99.90;;;;;;4917560;29;20203;-80
2023/10/17 02:31:27;;;;;;;19.50;8.90;;;4.30;99.90;;;;;;4919167;29;20196;-79
2023/10/17 02:34:01;;;;;;;19.73;8.87;;;4.30;99.90;;;;;;4918229;29;20197;-80
2023/10/17 02:36:32;;;;;;;17.77;8.70;;;3.90;99.90;;;;;;4934704;29;20307;-80
2023/10/17 02:39:03;;;;;;;14.33;8.27;;;4.00;99.90;;;;;;4935583;29;20195;-80
2023/10/17 02:41:32;;;;;;;17.50;8.57;;;4.00;99.90;;;;;;4935523;29;20193;-80
2023/10/17 02:44:03;;;;;;;18.77;8.70;;;3.90;99.90;;;;;;4935217;29;20202;-80
2023/10/17 02:46:43;;;;;;;15.83;8.10;;;3.90;99.90;;;;;;4934382;29;20198;-80
2023/10/17 02:49:17;;;;;;;18.93;8.43;;;3.90;99.90;;;;;;4919662;29;20599;-80
2023/10/17 02:51:53;;;;;;;23.07;9.57;;;3.80;99.90;;;;;;4935516;29;20228;-80
2023/10/17 02:54:27;;;;;;;18.13;8.37;;;4.00;99.90;;;;;;4917236;29;20196;-80
2023/10/17 02:56:59;;;;;;;19.67;8.87;;;3.80;99.90;;;;;;4917852;29;20215;-79
2023/10/17 02:59:34;;;;;;;16.83;8.63;;;3.90;99.90;;;;;;4934934;29;20191;-80
2023/10/17 03:02:05;;;;;;;20.23;8.70;;;3.70;99.90;;;;;;4934885;29;20198;-79
2023/10/17 03:04:34;;;;;;;21.00;9.10;;;3.70;99.90;;;;;;4935650;29;20204;-80
2023/10/17 03:07:07;;;;;;;18.90;8.60;;;3.90;99.90;;;;;;4934379;29;20217;-80
2023/10/17 03:09:39;;;;;;;18.97;8.80;;;3.70;99.90;;;;;;4917644;29;20633;-80
2023/10/17 03:12:28;;;;;;;16.20;8.23;;;3.90;99.90;;;;;;4934569;29;20629;-80
2023/10/17 03:17:39;;;;;;;17.80;8.63;;;3.60;99.90;;;;;;4933735;29;20239;-81
2023/10/17 03:20:11;;;;;;;19.77;8.93;;;3.50;99.90;;;;;;4934787;29;20199;-82
2023/10/17 03:22:42;;;;;;;16.33;8.93;;;3.60;99.90;;;;;;4917128;29;20221;-81
2023/10/17 03:25:18;;;;;;;20.77;8.93;;;3.60;99.90;;;;;;4917199;29;20250;-83
2023/10/17 03:27:49;;;;;;;20.10;8.87;;;3.50;99.90;;;;;;4933999;29;20228;-82
2023/10/17 03:30:19;;;;;;;16.87;8.77;;;3.50;99.90;;;;;;4934764;29;20193;-81
2023/10/17 03:33:05;;;;;;;20.30;9.53;;;3.50;99.90;;;;;;4918527;29;20230;-82
2023/10/17 03:35:46;;;;;;;18.13;9.13;;;3.60;99.90;;;;;;4901891;29;20307;-82
2023/10/17 03:38:26;;;;;;;18.07;8.60;;;3.50;99.90;;;;;;4934278;29;20212;-81
2023/10/17 03:41:15;;;;;;;17.07;9.27;;;3.80;99.90;;;;;;4918175;29;20211;-84
2023/10/17 03:43:53;;;;;;;19.23;9.23;;;3.50;99.90;;;;;;4916995;29;20242;-82
2023/10/17 03:46:27;;;;;;;14.63;7.97;;;3.60;99.90;;;;;;4917660;29;20188;-81
2023/10/17 03:49:06;;;;;;;18.10;8.77;;;3.60;99.90;;;;;;4917168;29;20222;-81
2023/10/17 03:51:39;;;;;;;19.50;9.23;;;3.60;99.90;;;;;;4933764;29;20224;-82
2023/10/17 03:54:18;;;;;;;23.27;9.60;;;3.70;99.90;;;;;;4933942;29;20649;-81
2023/10/17 03:56:46;;;;;;;17.67;8.63;;;3.70;99.90;;;;;;4917615;29;20255;-81
2023/10/17 03:59:31;;;;;;;17.93;8.83;;;3.50;99.90;;;;;;4920762;29;20214;-81
2023/10/17 04:02:26;;;;;;;17.13;9.47;;;3.30;99.90;;;;;;4921608;29;20249;-81
2023/10/17 04:05:06;;;;;;;18.20;9.10;;;3.40;99.90;;;;;;4938328;29;20228;-81
2023/10/17 04:07:36;;;;;;;20.43;9.83;;;3.30;99.90;;;;;;4920506;29;20310;-82
2023/10/17 04:13:16;;;;;;;18.50;9.57;;;3.30;99.90;;;;;;4920085;29;20199;-81
2023/10/17 04:15:47;;;;;;;19.53;9.43;;;3.50;99.90;;;;;;4921313;29;20307;-80
2023/10/17 04:18:15;;;;;;;18.37;9.37;;;3.50;99.90;;;;;;4937452;29;20240;-81
2023/10/17 04:20:46;;;;;;;21.07;9.93;;;3.30;99.90;;;;;;4920971;29;20203;-81
2023/10/17 04:23:21;;;;;;;21.23;9.30;;;3.50;99.90;;;;;;4920488;29;20208;-82
2023/10/17 04:25:56;;;;;;;19.70;9.87;;;3.20;99.90;;;;;;4905030;29;20294;-82
2023/10/17 04:28:31;;;;;;;17.07;9.60;;;3.20;99.90;;;;;;4937012;29;20190;-81
2023/10/17 04:30:58;;;;;;;23.33;10.10;;;3.50;99.90;;;;;;4936899;29;20203;-81
2023/10/17 04:33:34;;;;;;;20.27;9.47;;;3.20;99.90;;;;;;4937853;29;20176;-81
2023/10/17 04:36:15;;;;;;;19.77;9.97;;;3.30;99.90;;;;;;4937891;29;20761;-81
2023/10/17 04:39:11;;;;;;;15.80;8.90;;;3.10;99.90;;;;;;4937538;29;20203;-81
2023/10/17 04:44:50;;;;;;;21.13;9.40;;;3.10;99.90;;;;;;4920734;29;20615;-81
2023/10/17 04:47:28;;;;;;;21.20;9.90;;;3.50;99.90;;;;;;4920595;29;20537;-81
2023/10/17 04:50:02;;;;;;;18.73;9.67;;;3.40;99.90;;;;;;4937533;29;20752;-80
2023/10/17 04:55:59;;;;;;;19.47;10.47;;;3.10;99.90;;;;;;4896635;29;20204;-81
2023/10/17 04:58:39;;;;;;;21.77;10.20;;;3.10;99.90;;;;;;4881332;29;20692;-80
2023/10/17 05:01:34;;;;;;;18.73;9.87;;;3.40;99.90;;;;;;4881881;29;20181;-81
2023/10/17 06:17:30;;;;;;;22.10;10.97;;;3.70;99.90;;;;;;4935040;29;20246;-75
2023/10/17 06:19:58;;;;;;;21.93;11.53;;;3.50;99.90;;;;;;4917543;29;20204;-79
2023/10/17 06:23:23;;;;;;;21.73;11.60;;;3.80;99.90;;;;;;4920052;29;20313;-79
2023/10/17 06:28:28;;;;;;;24.67;11.77;;;3.90;99.90;;;;;;4936098;29;20218;-78
2023/10/17 06:31:34;;;;;;;21.47;10.93;;;3.90;99.90;;;;;;4935636;29;20222;-78
2023/10/17 06:34:07;;;;;;;22.73;11.43;;;4.00;99.90;;;;;;4934861;29;20203;-78
2023/10/17 06:36:50;;;;;;;22.30;11.70;;;4.00;99.90;;;;;;4935119;29;20302;-79
2023/10/17 06:39:26;;;;;;;22.77;12.37;;;4.00;99.90;;;;;;4918398;29;20221;-79
2023/10/17 06:42:48;;;;;;;25.20;11.67;;;4.00;99.90;;;;;;4935027;29;20191;-77
2023/10/17 06:47:48;;;;;;;22.40;12.07;;;4.40;99.90;;;;;;4934795;29;20200;-77
2023/10/17 06:53:15;;;;;;;21.77;11.60;;;4.60;99.90;;;;;;4919667;29;20622;-78
2023/10/17 06:55:52;;;;;;;20.53;11.80;;;4.60;99.90;;;;;;4935491;29;20218;-78
2023/10/17 06:58:21;;;;;;;21.07;11.63;;;4.80;99.90;;;;;;4934572;29;20229;-80
2023/10/17 07:01:19;;;;;;;20.97;12.73;;;4.70;99.90;;;;;;4918674;29;20183;-80
2023/10/17 07:03:47;;;;;;;23.13;12.07;;;4.90;99.90;;;;;;4918137;29;20195;-78
2023/10/17 07:06:20;;;;;;;23.83;12.47;;;4.80;99.90;;;;;;4934713;29;20223;-79
2023/10/17 07:08:58;;;;;;;23.27;12.10;;;4.70;99.90;;;;;;4917654;29;20695;-79
2023/10/17 07:11:35;;;;;;;23.70;12.30;;;4.80;99.90;;;;;;4934931;29;20250;-77
2023/10/17 07:16:41;;;;;;;21.73;11.87;;;5.00;99.90;;;;;;4934053;29;20536;-78
2023/10/17 07:19:46;;;;;;;26.67;12.17;;;5.30;99.90;;;;;;4934138;29;20675;-79
2023/10/17 07:22:15;;;;;;;25.20;11.77;;;5.20;99.90;;;;;;4935144;29;20689;-79
2023/10/17 07:24:48;;;;;;;21.90;12.63;;;5.30;99.90;;;;;;4917970;29;20206;-79
2023/10/17 07:27:27;;;;;;;21.17;11.80;;;5.50;99.90;;;;;;4918138;29;20197;-79
2023/10/17 07:29:58;;;;;;;22.00;11.87;;;5.70;99.90;;;;;;4917828;29;20209;-77
2023/10/17 07:32:44;;;;;;;24.33;11.93;;;5.70;99.90;;;;;;4934555;29;20633;-78
2023/10/17 07:35:23;;;;;;;20.67;11.33;;;5.70;99.90;;;;;;4918773;29;20654;-78
2023/10/17 07:37:56;;;;;;;21.13;11.30;;;5.90;99.90;;;;;;4917192;29;20319;-78
2023/10/17 07:40:32;;;;;;;19.57;10.90;;;6.00;99.90;;;;;;4935154;29;20207;-80
2023/10/17 07:43:07;;;;;;;22.83;10.97;;;6.10;99.90;;;;;;4901996;29;20237;-79
2023/10/17 07:45:55;;;;;;;20.77;10.23;;;6.20;99.90;;;;;;4919229;29;20320;-80
2023/10/17 07:48:24;;;;;;;21.87;10.57;;;6.40;99.90;;;;;;4917006;29;20187;-79
2023/10/17 07:51:00;;;;;;;20.27;9.63;;;6.90;99.90;;;;;;4916186;29;20248;-79
2023/10/17 07:53:32;;;;;;;19.23;9.13;;;7.50;99.90;;;;;;4934770;29;20217;-78
2023/10/17 07:56:04;;;;;;;16.80;9.30;;;8.10;99.90;;;;;;4934668;29;20197;-77
2023/10/17 07:58:39;;;;;;;17.27;8.50;;;8.60;99.90;;;;;;4934393;29;20310;-77
2023/10/17 08:01:16;;;;;;;16.20;8.97;;;8.70;99.90;;;;;;4934472;29;20196;-79
2023/10/17 08:07:03;;;;;;;20.47;8.13;;;9.00;99.90;;;;;;4894179;29;20235;-79
2023/10/17 08:09:40;;;;;;;16.27;8.53;;;9.60;99.90;;;;;;4879120;29;20205;-78
2023/10/17 08:12:13;;;;;;;16.80;8.60;;;10.00;99.90;;;;;;4893827;29;20246;-79
2023/10/17 08:14:45;;;;;;;15.90;7.90;;;9.60;99.90;;;;;;4894389;29;20208;-78
2023/10/17 08:17:16;;;;;;;11.67;7.23;;;10.20;99.90;;;;;;4893604;29;20248;-78
2023/10/17 08:23:13;;;;;;;14.63;6.77;;;10.70;99.90;;;;;;4893271;29;20479;-80
2023/10/17 08:25:59;;;;;;;14.53;7.33;;;10.90;99.90;;;;;;4893827;29;20204;-78
2023/10/17 08:28:34;;;;;;;12.30;6.77;;;10.80;99.90;;;;;;4893346;29;20200;-78
2023/10/17 08:31:24;;;;;;;12.80;7.00;;;11.00;99.90;;;;;;4893038;29;20671;-76
2023/10/17 08:36:48;;;;;;;14.17;6.20;;;11.10;99.90;;;;;;4893261;29;20232;-77
2023/10/17 08:42:11;;;;;;;13.83;6.00;;;10.60;99.90;;;;;;4893314;29;20676;-78
2023/10/17 08:44:46;;;;;;;13.27;5.57;;;10.50;99.90;;;;;;4932439;29;20211;-78
2023/10/17 08:47:18;;;;;;;11.57;5.90;;;10.50;99.90;;;;;;4920206;29;20201;-78
2023/10/17 08:50:09;;;;;;;11.97;5.50;;;10.60;99.90;;;;;;4936733;29;20214;-78
2023/10/17 08:52:49;;;;;;;12.30;4.67;;;11.00;99.90;;;;;;4935993;29;20267;-78
2023/10/17 08:55:27;;;;;;;11.57;4.60;;;11.70;99.90;;;;;;4936746;29;20191;-79
2023/10/17 08:57:55;;;;;;;13.57;5.50;;;12.10;99.90;;;;;;4919471;29;20215;-80
2023/10/17 09:03:37;;;;;;;9.60;4.73;;;12.90;99.90;;;;;;4936879;29;20206;-78
2023/10/17 09:08:55;;;;;;;7.90;3.80;;;13.30;99.90;;;;;;4937009;29;20549;-78
2023/10/17 09:11:33;;;;;;;8.67;3.50;;;13.80;99.90;;;;;;4904497;29;20215;-76
2023/10/17 09:17:14;;;;;;;5.57;3.00;;;14.30;99.90;;;;;;4919822;29;20604;-78
2023/10/17 09:19:46;;;;;;;7.63;3.40;;;14.40;99.90;;;;;;4920010;29;20221;-78
2023/10/17 09:22:23;;;;;;;7.90;3.10;;;14.50;99.90;;;;;;4919913;29;20214;-80
2023/10/17 09:24:51;;;;;;;7.87;3.07;;;14.60;99.90;;;;;;4936593;29;20280;-80
2023/10/17 09:27:25;;;;;;;8.13;3.00;;;14.50;99.90;;;;;;4936439;29;20552;-78
2023/10/17 09:30:00;;;;;;;9.73;3.43;;;14.40;99.90;;;;;;4936098;29;20591;-78
2023/10/17 09:32:40;;;;;;;6.80;3.30;;;14.70;99.90;;;;;;4920202;29;20264;-80
2023/10/17 09:35:16;;;;;;;13.27;3.60;;;13.50;99.90;;;;;;4919153;29;20197;-79
2023/10/17 09:37:45;;;;;;;7.93;3.10;;;12.90;99.90;;;;;;4904432;29;20292;-79
2023/10/17 09:40:22;;;;;;;8.20;2.70;;;13.40;99.90;;;;;;4936214;29;20200;-80
2023/10/17 09:43:06;;;;;;;6.47;2.33;;;13.80;99.90;;;;;;4936572;29;20201;-79
2023/10/17 09:45:41;;;;;;;6.90;2.37;;;14.70;99.90;;;;;;4935988;29;20217;-78
2023/10/17 09:48:13;;;;;;;5.57;2.50;;;15.00;99.90;;;;;;4935947;29;20282;-79
2023/10/17 09:50:46;;;;;;;7.67;2.20;;;14.60;99.90;;;;;;4919304;29;20250;-81
2023/10/17 09:53:16;;;;;;;5.63;2.40;;;14.90;99.90;;;;;;4918904;29;20229;-79
2023/10/17 09:55:59;;;;;;;3.90;1.80;;;14.30;99.90;;;;;;4936069;29;20241;-79
2023/10/17 09:58:31;;;;;;;6.37;2.33;;;14.70;99.90;;;;;;4918408;29;20233;-80
2023/10/17 10:01:22;;;;;;;4.57;2.00;;;15.30;99.90;;;;;;4918414;29;20270;-81
2023/10/17 10:03:56;;;;;;;6.17;2.33;;;15.60;99.90;;;;;;4935400;29;20208;-80
2023/10/17 10:06:34;;;;;;;5.37;2.23;;;15.70;99.90;;;;;;4935823;29;20207;-81
2023/10/17 10:09:06;;;;;;;7.77;2.40;;;16.10;99.90;;;;;;4918032;29;20203;-80
2023/10/17 10:11:55;;;;;;;6.30;2.27;;;16.80;99.90;;;;;;4917495;29;20297;-80
2023/10/17 10:14:36;;;;;;;5.93;2.40;;;17.40;99.90;;;;;;4903019;29;20206;-80
2023/10/17 10:17:22;;;;;;;9.70;2.30;;;17.60;99.90;;;;;;4934804;29;20251;-80
2023/10/17 10:20:04;;;;;;;5.07;1.57;;;17.30;99.90;;;;;;4935361;29;20273;-80
2023/10/17 10:22:50;;;;;;;5.40;1.93;;;17.40;99.90;;;;;;4935433;29;20313;-80
2023/10/17 10:25:20;;;;;;;6.03;2.30;;;17.40;99.90;;;;;;4902832;29;20211;-76
2023/10/17 10:28:25;;;;;;;5.40;2.40;;;16.30;99.90;;;;;;4935302;29;20367;-79
2023/10/17 10:30:56;;;;;;;5.37;1.97;;;15.40;99.90;;;;;;4935263;29;20234;-80
2023/10/17 10:33:32;;;;;;;5.10;2.10;;;14.90;99.90;;;;;;4934940;29;20233;-79
2023/10/17 10:36:01;;;;;;;4.10;2.20;;;15.40;99.90;;;;;;4918862;29;20298;-81
2023/10/17 10:38:31;;;;;;;5.37;2.10;;;15.70;99.90;;;;;;4917927;29;20305;-79
2023/10/17 10:41:18;;;;;;;4.97;2.20;;;15.90;99.90;;;;;;4934247;29;20209;-78
2023/10/17 10:43:54;;;;;;;4.97;1.70;;;15.60;99.90;;;;;;4917893;29;20209;-80
2023/10/17 10:46:23;;;;;;;7.30;2.27;;;15.80;99.90;;;;;;4934867;29;20202;-80
2023/10/17 10:49:02;;;;;;;5.00;1.83;;;15.90;99.90;;;;;;4935273;29;20202;-79
2023/10/17 10:51:36;;;;;;;5.57;1.83;;;16.10;99.90;;;;;;4917325;29;20249;-79
2023/10/17 10:55:10;;;;;;;5.77;1.90;;;16.10;99.90;;;;;;4921174;29;20187;-82
2023/10/17 10:57:39;;;;;;;8.50;2.20;;;16.10;99.90;;;;;;4919008;29;20214;-80
2023/10/17 11:00:23;;;;;;;5.77;1.60;;;15.30;99.90;;;;;;4917953;29;20226;-78
2023/10/17 11:02:58;;;;;;;4.53;1.67;;;15.40;99.90;;;;;;4935311;29;20202;-79
2023/10/17 11:05:31;;;;;;;7.33;1.90;;;15.30;99.90;;;;;;4918155;29;20202;-78
2023/10/17 11:08:00;;;;;;;5.83;2.40;;;14.70;99.90;;;;;;4934091;29;20210;-79
2023/10/17 11:10:31;;;;;;;7.40;2.13;;;14.40;99.90;;;;;;4934621;29;20198;-79
2023/10/17 11:12:59;;;;;;;4.00;1.80;;;13.60;99.90;;;;;;4935076;29;20208;-79
2023/10/17 11:15:32;;;;;;;4.13;1.80;;;13.70;99.90;;;;;;4901197;29;20204;-78
2023/10/17 11:18:21;;;;;;;4.80;1.70;;;14.90;99.90;;;;;;4934100;29;20249;-80
2023/10/17 11:20:57;;;;;;;6.53;1.80;;;15.20;99.90;;;;;;4917858;29;20199;-81
2023/10/17 11:23:29;;;;;;;5.97;1.80;;;16.60;99.90;;;;;;4916965;29;20212;-79
2023/10/17 11:26:12;;;;;;;6.37;1.90;;;17.50;99.90;;;;;;4917493;29;20207;-79
2023/10/17 11:28:57;;;;;;;3.27;1.50;;;18.70;99.90;;;;;;4919422;29;20268;-80
2023/10/17 11:31:34;;;;;;;4.40;1.90;;;20.00;97.80;;;;;;4916755;29;20198;-79
2023/10/17 11:34:12;;;;;;;3.67;1.53;;;19.40;95.60;;;;;;4934340;29;20302;-79
2023/10/17 11:36:48;;;;;;;4.27;1.60;;;20.30;95.60;;;;;;4916859;29;20254;-81
2023/10/17 11:39:26;;;;;;;4.03;1.60;;;20.80;92.50;;;;;;4916781;29;20257;-78
2023/10/17 11:41:59;;;;;;;5.70;1.87;;;21.10;90.60;;;;;;4934072;29;20191;-79
2023/10/17 11:44:31;;;;;;;6.17;1.50;;;19.90;90.60;;;;;;4934606;29;20202;-79
2023/10/17 11:47:23;;;;;;;3.83;1.40;;;19.40;90.90;;;;;;4917326;29;20202;-78
2023/10/17 11:49:52;;;;;;;5.30;1.80;;;19.50;90.80;;;;;;4934141;29;20245;-81
2023/10/17 11:52:20;;;;;;;7.63;2.00;;;20.50;90.70;;;;;;4934013;29;20433;-80
2023/10/17 11:55:04;;;;;;;3.50;1.47;;;20.70;89.30;;;;;;4917032;29;20195;-80
2023/10/17 11:57:32;;;;;;;6.07;1.60;;;20.30;88.10;;;;;;4916495;29;20183;-78
2023/10/17 12:02:55;;;;;;;3.53;1.60;;;21.10;87.00;;;;;;4916195;29;20214;-79
2023/10/17 12:05:38;;;;;;;4.30;1.60;;;20.60;85.10;;;;;;4916487;29;20199;-80
2023/10/17 12:08:09;;;;;;;2.73;1.30;;;19.50;89.20;;;;;;4933464;29;20202;-80
2023/10/17 12:10:43;;;;;;;3.23;1.30;;;20.50;86.90;;;;;;4934302;29;20198;-79
2023/10/17 12:13:16;;;;;;;2.47;1.20;;;21.20;83.10;;;;;;4933639;29;20199;-78
2023/10/17 12:15:46;;;;;;;4.17;1.50;;;20.40;83.10;;;;;;4916587;29;20301;-78
2023/10/17 12:18:24;;;;;;;4.90;1.20;;;18.70;84.30;;;;;;4934769;29;20281;-80
2023/10/17 12:21:04;;;;;;;4.53;1.50;;;17.10;90.20;;;;;;4937345;29;20227;-80
2023/10/17 12:23:55;;;;;;;3.97;1.47;;;16.90;91.70;;;;;;4905136;29;20241;-79
2023/10/17 12:26:26;;;;;;;3.50;1.50;;;16.90;91.70;;;;;;4920443;29;20199;-79
2023/10/17 12:28:54;;;;;;;3.83;1.40;;;16.80;91.80;;;;;;4936884;29;20179;-80
2023/10/17 12:31:24;;;;;;;2.37;1.33;;;17.30;92.50;;;;;;4938262;29;20199;-79
2023/10/17 12:33:55;;;;;;;3.50;1.43;;;17.90;91.10;;;;;;4937403;29;20207;-80
2023/10/17 12:36:30;;;;;;;3.90;1.50;;;17.80;90.50;;;;;;4920783;29;20219;-80
2023/10/17 12:39:02;;;;;;;4.73;1.43;;;18.10;90.40;;;;;;4937290;29;20219;-79
2023/10/17 12:41:39;;;;;;;2.83;1.30;;;18.10;89.80;;;;;;4936991;29;20183;-78
2023/10/17 12:44:09;;;;;;;3.20;1.33;;;16.90;90.30;;;;;;4920180;29;20195;-79
2023/10/17 12:46:48;;;;;;;5.93;1.40;;;16.00;91.60;;;;;;4936706;29;20677;-79
2023/10/17 12:49:19;;;;;;;4.27;1.43;;;16.00;92.90;;;;;;4937460;29;20195;-79
2023/10/17 12:51:47;;;;;;;3.57;1.50;;;15.30;93.50;;;;;;4936821;29;20591;-81
2023/10/17 12:54:19;;;;;;;4.57;1.70;;;15.00;93.90;;;;;;4936606;29;20675;-80
2023/10/17 12:56:48;;;;;;;3.93;1.37;;;14.60;95.00;;;;;;4937031;29;20194;-80
2023/10/17 12:59:33;;;;;;;3.23;1.40;;;14.80;95.30;;;;;;4936378;29;20643;-80
2023/10/17 13:02:10;;;;;;;4.77;1.50;;;14.40;95.80;;;;;;4919775;29;20210;-80
2023/10/17 13:04:53;;;;;;;4.23;1.43;;;14.30;95.70;;;;;;4919984;29;20319;-80
2023/10/17 13:07:23;;;;;;;4.73;1.33;;;13.90;95.20;;;;;;4936278;29;20214;-79
2023/10/17 13:09:53;;;;;;;3.40;1.30;;;13.20;95.20;;;;;;4919885;29;20286;-79
2023/10/17 13:12:24;;;;;;;2.87;1.40;;;13.00;97.00;;;;;;4935756;29;20195;-78
2023/10/17 13:14:51;;;;;;;4.27;1.40;;;12.50;97.40;;;;;;4936687;29;20206;-79
2023/10/17 13:17:36;;;;;;;3.67;1.67;;;12.70;97.90;;;;;;4918830;29;20620;-80
2023/10/17 13:20:07;;;;;;;4.50;2.10;;;12.30;98.20;;;;;;4936268;29;20218;-79
2023/10/17 13:22:51;;;;;;;5.17;2.00;;;12.10;99.00;;;;;;4918474;29;20230;-80
2023/10/17 13:25:24;;;;;;;4.60;1.70;;;12.30;98.90;;;;;;4935724;29;20201;-79
2023/10/17 13:27:58;;;;;;;3.67;1.80;;;12.30;99.10;;;;;;4919526;29;20198;-79
2023/10/17 13:30:32;;;;;;;3.47;1.70;;;12.10;99.70;;;;;;4936183;29;20191;-80
2023/10/17 13:33:06;;;;;;;3.63;1.80;;;11.90;99.90;;;;;;4935998;29;20569;-80
2023/10/17 13:35:44;;;;;;;4.77;1.77;;;11.90;99.90;;;;;;4914628;29;20556;-79
2023/10/17 13:38:13;;;;;;;4.13;1.40;;;12.20;99.90;;;;;;4914175;29;20301;-80
2023/10/17 13:40:41;;;;;;;3.97;1.43;;;11.80;99.90;;;;;;4915212;29;20655;-78
2023/10/17 13:43:13;;;;;;;5.03;1.50;;;12.10;99.90;;;;;;4899525;29;20211;-78
2023/10/17 13:45:43;;;;;;;2.87;1.50;;;11.90;99.90;;;;;;4898651;29;20214;-80
2023/10/17 13:48:27;;;;;;;7.10;1.90;;;11.90;99.90;;;;;;4899751;29;20207;-81
2023/10/17 13:51:06;;;;;;;3.83;1.60;;;11.90;99.90;;;;;;4914422;29;20231;-80
2023/10/17 13:53:45;;;;;;;3.67;1.70;;;12.00;99.90;;;;;;4923106;29;20235;-79
2023/10/17 13:56:23;;;;;;;3.90;1.50;;;11.60;99.90;;;;;;4919229;29;20202;-79
2023/10/17 13:58:55;;;;;;;3.93;1.87;;;11.50;99.90;;;;;;4935482;29;20257;-80
2023/10/17 14:01:32;;;;;;;6.27;2.03;;;11.90;99.90;;;;;;4918221;29;20218;-79
2023/10/17 14:04:09;;;;;;;4.53;1.77;;;11.50;99.90;;;;;;4935859;29;20182;-80
2023/10/17 14:06:40;;;;;;;4.23;1.67;;;11.40;99.90;;;;;;4935286;29;20278;-80
2023/10/17 14:09:14;;;;;;;3.70;1.60;;;11.50;99.90;;;;;;4935408;29;20246;-79
2023/10/17 14:11:48;;;;;;;4.53;1.47;;;11.30;99.90;;;;;;4935347;29;20187;-82
2023/10/17 14:14:26;;;;;;;5.23;2.00;;;11.60;99.90;;;;;;4918243;29;20199;-80
2023/10/17 14:16:58;;;;;;;3.20;1.63;;;11.80;99.90;;;;;;4934463;29;20576;-81
2023/10/17 14:19:50;;;;;;;4.43;1.83;;;11.70;99.90;;;;;;4934491;29;20225;-82
2023/10/17 14:22:38;;;;;;;4.87;1.90;;;11.30;99.90;;;;;;4918466;29;20223;-81
2023/10/17 14:26:00;;;;;;;3.20;1.73;;;11.20;99.90;;;;;;4903494;29;20298;-81
2023/10/17 14:28:01;;;;;;;5.03;1.67;;;11.10;99.90;;;;;;4934875;29;20199;-79
2023/10/17 14:30:36;;;;;;;3.30;1.70;;;11.10;99.90;;;;;;4902783;29;20222;-81
2023/10/17 14:33:04;;;;;;;5.67;1.83;;;11.10;99.90;;;;;;4918178;29;20194;-81
2023/10/17 14:35:39;;;;;;;6.27;1.40;;;11.00;99.90;;;;;;4935042;29;20214;-79
2023/10/17 14:38:11;;;;;;;2.97;1.30;;;10.90;99.90;;;;;;4935072;29;20219;-81
2023/10/17 14:40:38;;;;;;;4.23;1.67;;;10.80;99.90;;;;;;4934669;29;20269;-79
2023/10/17 14:43:14;;;;;;;6.10;1.70;;;10.70;99.90;;;;;;4934641;29;20682;-80
2023/10/17 14:45:46;;;;;;;4.33;1.40;;;10.70;99.90;;;;;;4934839;29;20195;-78
2023/10/17 14:48:20;;;;;;;4.73;1.90;;;10.70;99.90;;;;;;4935648;29;20199;-81
2023/10/17 14:50:49;;;;;;;2.80;1.40;;;10.70;99.90;;;;;;4917516;29;20199;-82
2023/10/17 14:53:21;;;;;;;4.27;1.40;;;10.70;99.90;;;;;;4934567;29;20183;-78
2023/10/17 14:56:05;;;;;;;4.70;1.87;;;10.60;99.90;;;;;;4916905;29;20310;-80
2023/10/17 14:58:35;;;;;;;4.33;1.60;;;10.70;99.90;;;;;;4933907;29;20194;-81
2023/10/17 15:01:06;;;;;;;4.97;1.87;;;10.60;99.90;;;;;;4934752;29;20221;-80
2023/10/17 15:03:45;;;;;;;5.00;1.80;;;10.50;99.90;;;;;;4934682;29;20262;-80
2023/10/17 15:06:23;;;;;;;6.83;2.50;;;10.40;99.90;;;;;;4934963;29;20214;-80
2023/10/17 15:08:57;;;;;;;4.47;2.00;;;10.30;99.90;;;;;;4934160;29;20199;-81
2023/10/17 15:11:28;;;;;;;4.63;2.07;;;10.30;99.90;;;;;;4901880;29;20618;-79
2023/10/17 15:14:05;;;;;;;5.57;2.17;;;10.10;99.90;;;;;;4934872;29;20194;-80
2023/10/17 15:16:36;;;;;;;6.17;1.83;;;10.20;99.90;;;;;;4933653;29;20202;-81
2023/10/17 15:19:04;;;;;;;7.27;2.23;;;9.90;99.90;;;;;;4934071;29;20686;-81
2023/10/17 15:21:42;;;;;;;3.40;2.00;;;9.90;99.90;;;;;;4917621;29;20309;-81
2023/10/17 15:24:16;;;;;;;4.40;1.90;;;10.20;99.90;;;;;;4934273;29;20194;-79
2023/10/17 15:26:51;;;;;;;3.50;1.90;;;9.90;99.90;;;;;;4933630;29;20221;-80
2023/10/17 15:29:22;;;;;;;6.13;2.20;;;9.60;99.90;;;;;;4934629;29;20198;-80
2023/10/17 15:31:55;;;;;;;3.93;1.93;;;9.80;99.90;;;;;;4916989;29;20336;-79
2023/10/17 15:34:34;;;;;;;5.77;2.17;;;9.90;99.90;;;;;;4933778;29;20221;-80